Terminal Aerodrome Forecast
Issued by NWS Cleveland, OH

Current Version | Previous Version | Text Only | Print | Product List | Glossary On
Versions: 1 2 3 4 5 6 7 8 9 10 11 12 13 14 15 16 17 18 19 20
000
FTUS41 KCLE 201726
TAFERI
TAF
KERI 201726Z 2018/2118 20015G25KT P6SM SCT250
     FM210200 20020G32KT P6SM SCT250
     FM211500 20022G34KT P6SM SKC=

USA.gov is the U.S. government's official web portal to all federal, state and local government web resources and services.